sensor_id;sensor_type;location;lat;lon;timestamp;P1;durP1;ratioP1;P2;durP2;ratioP2
20036;SDS011;10179;42.640;23.312;2023-06-04T00:02:12;9.18;;;5.35;;
20036;SDS011;10179;42.640;23.312;2023-06-04T00:04:38;10.23;;;5.45;;
20036;SDS011;10179;42.640;23.312;2023-06-04T00:07:03;8.65;;;5.70;;
20036;SDS011;10179;42.640;23.312;2023-06-04T00:09:29;8.85;;;5.97;;
20036;SDS011;10179;42.640;23.312;2023-06-04T00:11:55;9.90;;;5.78;;
20036;SDS011;10179;42.640;23.312;2023-06-04T00:14:20;8.75;;;5.60;;
20036;SDS011;10179;42.640;23.312;2023-06-04T00:16:45;13.10;;;6.10;;
20036;SDS011;10179;42.640;23.312;2023-06-04T00:19:11;12.70;;;7.38;;
20036;SDS011;10179;42.640;23.312;2023-06-04T00:21:36;10.20;;;6.68;;
20036;SDS011;10179;42.640;23.312;2023-06-04T00:24:02;14.23;;;8.20;;
20036;SDS011;10179;42.640;23.312;2023-06-04T00:26:27;12.95;;;8.35;;
20036;SDS011;10179;42.640;23.312;2023-06-04T00:28:56;12.63;;;7.88;;
20036;SDS011;10179;42.640;23.312;2023-06-04T00:31:21;15.57;;;8.20;;
20036;SDS011;10179;42.640;23.312;2023-06-04T00:33:47;12.93;;;8.05;;
20036;SDS011;10179;42.640;23.312;2023-06-04T00:36:13;14.60;;;8.50;;
20036;SDS011;10179;42.640;23.312;2023-06-04T00:38:38;16.58;;;8.68;;
20036;SDS011;10179;42.640;23.312;2023-06-04T00:41:04;15.18;;;8.35;;
20036;SDS011;10179;42.640;23.312;2023-06-04T00:43:29;14.68;;;8.48;;
20036;SDS011;10179;42.640;23.312;2023-06-04T00:45:56;17.60;;;8.43;;
20036;SDS011;10179;42.640;23.312;2023-06-04T00:48:22;16.80;;;9.55;;
20036;SDS011;10179;42.640;23.312;2023-06-04T00:50:48;14.57;;;8.75;;
20036;SDS011;10179;42.640;23.312;2023-06-04T00:53:14;15.48;;;9.57;;
20036;SDS011;10179;42.640;23.312;2023-06-04T00:55:40;14.82;;;8.98;;
20036;SDS011;10179;42.640;23.312;2023-06-04T00:58:06;15.43;;;8.93;;
20036;SDS011;10179;42.640;23.312;2023-06-04T01:00:31;14.23;;;8.82;;
20036;SDS011;10179;42.640;23.312;2023-06-04T01:02:57;16.95;;;9.65;;
20036;SDS011;10179;42.640;23.312;2023-06-04T01:08:30;15.90;;;8.55;;
20036;SDS011;10179;42.640;23.312;2023-06-04T01:10:56;14.50;;;9.52;;
20036;SDS011;10179;42.640;23.312;2023-06-04T01:13:23;8.40;;;5.63;;
20036;SDS011;10179;42.640;23.312;2023-06-04T01:15:49;14.27;;;6.25;;
20036;SDS011;10179;42.640;23.312;2023-06-04T01:18:15;10.85;;;5.22;;
20036;SDS011;10179;42.640;23.312;2023-06-04T01:20:54;8.55;;;5.47;;
20036;SDS011;10179;42.640;23.312;2023-06-04T01:26:02;11.23;;;5.38;;
20036;SDS011;10179;42.640;23.312;2023-06-04T01:28:29;7.88;;;5.00;;
20036;SDS011;10179;42.640;23.312;2023-06-04T01:30:55;7.45;;;4.55;;
20036;SDS011;10179;42.640;23.312;2023-06-04T01:33:22;9.02;;;4.18;;
20036;SDS011;10179;42.640;23.312;2023-06-04T01:35:48;10.52;;;4.63;;
20036;SDS011;10179;42.640;23.312;2023-06-04T01:38:14;7.40;;;4.43;;
20036;SDS011;10179;42.640;23.312;2023-06-04T01:40:40;7.90;;;4.32;;
20036;SDS011;10179;42.640;23.312;2023-06-04T01:43:06;6.13;;;4.13;;
20036;SDS011;10179;42.640;23.312;2023-06-04T01:45:31;6.80;;;4.35;;
20036;SDS011;10179;42.640;23.312;2023-06-04T01:47:57;6.68;;;4.50;;
20036;SDS011;10179;42.640;23.312;2023-06-04T01:50:22;5.57;;;4.28;;
20036;SDS011;10179;42.640;23.312;2023-06-04T01:52:48;8.98;;;5.20;;
20036;SDS011;10179;42.640;23.312;2023-06-04T01:55:14;10.57;;;6.32;;
20036;SDS011;10179;42.640;23.312;2023-06-04T01:57:42;8.75;;;5.80;;
20036;SDS011;10179;42.640;23.312;2023-06-04T02:00:15;11.15;;;6.75;;
20036;SDS011;10179;42.640;23.312;2023-06-04T02:02:41;10.70;;;6.30;;
20036;SDS011;10179;42.640;23.312;2023-06-04T02:05:07;12.40;;;5.55;;
20036;SDS011;10179;42.640;23.312;2023-06-04T02:07:36;9.48;;;5.88;;
20036;SDS011;10179;42.640;23.312;2023-06-04T02:10:03;7.72;;;5.38;;
20036;SDS011;10179;42.640;23.312;2023-06-04T02:12:30;8.52;;;5.00;;
20036;SDS011;10179;42.640;23.312;2023-06-04T02:14:56;8.05;;;4.93;;
20036;SDS011;10179;42.640;23.312;2023-06-04T02:17:21;9.10;;;5.32;;
20036;SDS011;10179;42.640;23.312;2023-06-04T02:19:47;7.97;;;5.18;;
20036;SDS011;10179;42.640;23.312;2023-06-04T02:22:19;6.25;;;4.70;;
20036;SDS011;10179;42.640;23.312;2023-06-04T02:24:45;7.40;;;4.45;;
20036;SDS011;10179;42.640;23.312;2023-06-04T02:27:13;5.13;;;3.05;;
20036;SDS011;10179;42.640;23.312;2023-06-04T02:29:39;3.88;;;2.90;;
20036;SDS011;10179;42.640;23.312;2023-06-04T02:32:05;4.57;;;2.88;;
20036;SDS011;10179;42.640;23.312;2023-06-04T02:34:31;3.63;;;3.05;;
20036;SDS011;10179;42.640;23.312;2023-06-04T02:36:56;3.47;;;2.75;;
20036;SDS011;10179;42.640;23.312;2023-06-04T02:39:22;3.78;;;2.67;;
20036;SDS011;10179;42.640;23.312;2023-06-04T02:41:47;4.45;;;2.50;;
20036;SDS011;10179;42.640;23.312;2023-06-04T02:44:12;3.90;;;2.30;;
20036;SDS011;10179;42.640;23.312;2023-06-04T02:46:38;4.28;;;2.17;;
20036;SDS011;10179;42.640;23.312;2023-06-04T02:49:03;3.50;;;2.25;;
20036;SDS011;10179;42.640;23.312;2023-06-04T02:51:29;3.33;;;2.40;;
20036;SDS011;10179;42.640;23.312;2023-06-04T02:53:55;2.42;;;2.13;;
20036;SDS011;10179;42.640;23.312;2023-06-04T02:56:20;3.28;;;2.28;;
20036;SDS011;10179;42.640;23.312;2023-06-04T02:58:50;5.32;;;2.67;;
20036;SDS011;10179;42.640;23.312;2023-06-04T03:01:20;6.63;;;2.65;;
20036;SDS011;10179;42.640;23.312;2023-06-04T03:03:46;5.78;;;3.22;;
20036;SDS011;10179;42.640;23.312;2023-06-04T03:06:12;3.55;;;2.53;;
20036;SDS011;10179;42.640;23.312;2023-06-04T03:08:39;3.90;;;2.65;;
20036;SDS011;10179;42.640;23.312;2023-06-04T03:11:05;4.05;;;2.67;;
20036;SDS011;10179;42.640;23.312;2023-06-04T03:13:31;5.47;;;2.78;;
20036;SDS011;10179;42.640;23.312;2023-06-04T03:15:57;8.85;;;2.60;;
20036;SDS011;10179;42.640;23.312;2023-06-04T03:18:25;3.53;;;2.35;;
20036;SDS011;10179;42.640;23.312;2023-06-04T03:20:51;3.63;;;2.50;;
20036;SDS011;10179;42.640;23.312;2023-06-04T03:23:18;2.88;;;2.50;;
20036;SDS011;10179;42.640;23.312;2023-06-04T03:25:43;4.78;;;2.47;;
20036;SDS011;10179;42.640;23.312;2023-06-04T03:28:08;3.58;;;2.50;;
20036;SDS011;10179;42.640;23.312;2023-06-04T03:30:34;6.40;;;2.60;;
20036;SDS011;10179;42.640;23.312;2023-06-04T03:32:59;5.53;;;2.40;;
20036;SDS011;10179;42.640;23.312;2023-06-04T03:35:25;5.13;;;2.50;;
20036;SDS011;10179;42.640;23.312;2023-06-04T03:37:50;2.97;;;2.10;;
20036;SDS011;10179;42.640;23.312;2023-06-04T03:40:16;4.85;;;2.10;;
20036;SDS011;10179;42.640;23.312;2023-06-04T03:42:41;2.88;;;2.17;;
20036;SDS011;10179;42.640;23.312;2023-06-04T03:45:07;4.20;;;2.03;;
20036;SDS011;10179;42.640;23.312;2023-06-04T03:47:33;3.42;;;2.20;;
20036;SDS011;10179;42.640;23.312;2023-06-04T03:49:58;3.08;;;1.90;;
20036;SDS011;10179;42.640;23.312;2023-06-04T03:52:23;3.58;;;2.20;;
20036;SDS011;10179;42.640;23.312;2023-06-04T03:54:49;4.53;;;2.35;;
20036;SDS011;10179;42.640;23.312;2023-06-04T03:57:14;3.28;;;2.30;;
20036;SDS011;10179;42.640;23.312;2023-06-04T03:59:39;4.10;;;2.72;;
20036;SDS011;10179;42.640;23.312;2023-06-04T04:02:05;3.70;;;2.25;;
20036;SDS011;10179;42.640;23.312;2023-06-04T04:04:31;6.15;;;2.42;;
20036;SDS011;10179;42.640;23.312;2023-06-04T04:06:58;3.45;;;2.05;;
20036;SDS011;10179;42.640;23.312;2023-06-04T04:09:25;6.32;;;2.65;;
20036;SDS011;10179;42.640;23.312;2023-06-04T04:11:50;3.88;;;2.70;;
20036;SDS011;10179;42.640;23.312;2023-06-04T04:14:16;4.15;;;2.85;;
20036;SDS011;10179;42.640;23.312;2023-06-04T04:16:41;3.10;;;2.50;;
20036;SDS011;10179;42.640;23.312;2023-06-04T04:19:06;7.82;;;2.85;;
20036;SDS011;10179;42.640;23.312;2023-06-04T04:21:33;4.03;;;2.58;;
20036;SDS011;10179;42.640;23.312;2023-06-04T04:24:01;3.47;;;2.60;;
20036;SDS011;10179;42.640;23.312;2023-06-04T04:26:28;3.83;;;2.50;;
20036;SDS011;10179;42.640;23.312;2023-06-04T04:28:53;5.88;;;2.83;;
20036;SDS011;10179;42.640;23.312;2023-06-04T04:31:26;3.95;;;2.65;;
20036;SDS011;10179;42.640;23.312;2023-06-04T04:33:52;6.38;;;2.65;;
20036;SDS011;10179;42.640;23.312;2023-06-04T04:36:20;8.38;;;2.90;;
20036;SDS011;10179;42.640;23.312;2023-06-04T04:38:46;4.13;;;2.70;;
20036;SDS011;10179;42.640;23.312;2023-06-04T04:41:11;5.50;;;2.50;;
20036;SDS011;10179;42.640;23.312;2023-06-04T04:43:37;5.25;;;2.90;;
20036;SDS011;10179;42.640;23.312;2023-06-04T04:46:06;4.18;;;2.65;;
20036;SDS011;10179;42.640;23.312;2023-06-04T04:48:31;5.72;;;2.90;;
20036;SDS011;10179;42.640;23.312;2023-06-04T04:50:57;5.72;;;3.28;;
20036;SDS011;10179;42.640;23.312;2023-06-04T04:53:23;6.35;;;2.90;;
20036;SDS011;10179;42.640;23.312;2023-06-04T04:55:48;4.40;;;3.15;;
20036;SDS011;10179;42.640;23.312;2023-06-04T04:58:14;4.53;;;3.15;;
20036;SDS011;10179;42.640;23.312;2023-06-04T05:00:40;5.38;;;3.40;;
20036;SDS011;10179;42.640;23.312;2023-06-04T05:03:06;3.58;;;2.47;;
20036;SDS011;10179;42.640;23.312;2023-06-04T05:05:33;3.85;;;2.97;;
20036;SDS011;10179;42.640;23.312;2023-06-04T05:07:58;4.40;;;3.15;;
20036;SDS011;10179;42.640;23.312;2023-06-04T05:10:23;4.78;;;3.08;;
20036;SDS011;10179;42.640;23.312;2023-06-04T05:12:52;6.00;;;3.20;;
20036;SDS011;10179;42.640;23.312;2023-06-04T05:15:18;6.22;;;4.32;;
20036;SDS011;10179;42.640;23.312;2023-06-04T05:17:45;5.10;;;3.47;;
20036;SDS011;10179;42.640;23.312;2023-06-04T05:20:11;10.15;;;4.05;;
20036;SDS011;10179;42.640;23.312;2023-06-04T05:22:38;5.53;;;3.72;;
20036;SDS011;10179;42.640;23.312;2023-06-04T05:25:04;7.18;;;3.60;;
20036;SDS011;10179;42.640;23.312;2023-06-04T05:27:31;5.50;;;4.10;;
20036;SDS011;10179;42.640;23.312;2023-06-04T05:29:57;5.18;;;3.63;;
20036;SDS011;10179;42.640;23.312;2023-06-04T05:32:23;5.60;;;4.07;;
20036;SDS011;10179;42.640;23.312;2023-06-04T05:34:48;5.95;;;4.05;;
20036;SDS011;10179;42.640;23.312;2023-06-04T05:37:14;9.75;;;4.43;;
20036;SDS011;10179;42.640;23.312;2023-06-04T05:39:41;5.35;;;3.70;;
20036;SDS011;10179;42.640;23.312;2023-06-04T05:42:07;6.07;;;3.75;;
20036;SDS011;10179;42.640;23.312;2023-06-04T05:44:33;7.85;;;4.00;;
20036;SDS011;10179;42.640;23.312;2023-06-04T05:46:58;8.48;;;4.00;;
20036;SDS011;10179;42.640;23.312;2023-06-04T05:49:23;8.40;;;4.30;;
20036;SDS011;10179;42.640;23.312;2023-06-04T05:51:50;7.65;;;4.93;;
20036;SDS011;10179;42.640;23.312;2023-06-04T05:54:15;8.68;;;4.22;;
20036;SDS011;10179;42.640;23.312;2023-06-04T05:56:41;6.10;;;3.90;;
20036;SDS011;10179;42.640;23.312;2023-06-04T05:59:06;6.60;;;4.30;;
20036;SDS011;10179;42.640;23.312;2023-06-04T06:01:31;6.93;;;4.28;;
20036;SDS011;10179;42.640;23.312;2023-06-04T06:03:57;7.40;;;4.35;;
20036;SDS011;10179;42.640;23.312;2023-06-04T06:06:22;6.22;;;4.13;;
20036;SDS011;10179;42.640;23.312;2023-06-04T06:08:48;7.55;;;4.63;;
20036;SDS011;10179;42.640;23.312;2023-06-04T06:11:14;11.32;;;5.03;;
20036;SDS011;10179;42.640;23.312;2023-06-04T06:13:40;8.70;;;4.95;;
20036;SDS011;10179;42.640;23.312;2023-06-04T06:16:05;7.07;;;4.38;;
20036;SDS011;10179;42.640;23.312;2023-06-04T06:18:31;7.82;;;4.72;;
20036;SDS011;10179;42.640;23.312;2023-06-04T06:20:57;11.52;;;5.35;;
20036;SDS011;10179;42.640;23.312;2023-06-04T06:23:23;6.72;;;4.40;;
20036;SDS011;10179;42.640;23.312;2023-06-04T06:25:49;10.00;;;4.43;;
20036;SDS011;10179;42.640;23.312;2023-06-04T06:28:16;8.93;;;4.60;;
20036;SDS011;10179;42.640;23.312;2023-06-04T06:30:42;6.97;;;4.68;;
20036;SDS011;10179;42.640;23.312;2023-06-04T06:33:08;6.45;;;4.38;;
20036;SDS011;10179;42.640;23.312;2023-06-04T06:35:33;7.55;;;4.38;;
20036;SDS011;10179;42.640;23.312;2023-06-04T06:37:58;7.85;;;4.60;;
20036;SDS011;10179;42.640;23.312;2023-06-04T06:40:24;7.93;;;4.60;;
20036;SDS011;10179;42.640;23.312;2023-06-04T06:42:49;9.10;;;5.00;;
20036;SDS011;10179;42.640;23.312;2023-06-04T06:45:18;6.35;;;4.47;;
20036;SDS011;10179;42.640;23.312;2023-06-04T06:47:44;7.28;;;4.68;;
20036;SDS011;10179;42.640;23.312;2023-06-04T06:50:10;8.57;;;4.90;;
20036;SDS011;10179;42.640;23.312;2023-06-04T06:52:36;11.25;;;4.97;;
20036;SDS011;10179;42.640;23.312;2023-06-04T06:55:03;7.95;;;4.28;;
20036;SDS011;10179;42.640;23.312;2023-06-04T06:57:29;6.53;;;4.13;;
20036;SDS011;10179;42.640;23.312;2023-06-04T06:59:54;9.60;;;4.45;;
20036;SDS011;10179;42.640;23.312;2023-06-04T07:02:20;8.77;;;4.43;;
20036;SDS011;10179;42.640;23.312;2023-06-04T07:04:45;8.45;;;4.43;;
20036;SDS011;10179;42.640;23.312;2023-06-04T07:07:11;6.10;;;4.35;;
20036;SDS011;10179;42.640;23.312;2023-06-04T07:09:36;6.25;;;4.30;;
20036;SDS011;10179;42.640;23.312;2023-06-04T07:12:01;7.30;;;4.35;;
20036;SDS011;10179;42.640;23.312;2023-06-04T07:14:27;7.50;;;4.35;;
20036;SDS011;10179;42.640;23.312;2023-06-04T07:16:52;5.80;;;3.63;;
20036;SDS011;10179;42.640;23.312;2023-06-04T07:19:18;7.70;;;4.03;;
20036;SDS011;10179;42.640;23.312;2023-06-04T07:21:43;12.60;;;4.88;;
20036;SDS011;10179;42.640;23.312;2023-06-04T07:24:08;8.35;;;4.95;;
20036;SDS011;10179;42.640;23.312;2023-06-04T07:26:34;9.18;;;4.82;;
20036;SDS011;10179;42.640;23.312;2023-06-04T07:28:59;5.78;;;4.53;;
20036;SDS011;10179;42.640;23.312;2023-06-04T07:31:25;9.48;;;4.45;;
20036;SDS011;10179;42.640;23.312;2023-06-04T07:33:50;8.10;;;4.43;;
20036;SDS011;10179;42.640;23.312;2023-06-04T07:36:16;13.55;;;4.65;;
20036;SDS011;10179;42.640;23.312;2023-06-04T07:38:41;7.85;;;3.90;;
20036;SDS011;10179;42.640;23.312;2023-06-04T07:41:07;8.32;;;4.88;;
20036;SDS011;10179;42.640;23.312;2023-06-04T07:43:34;9.85;;;5.15;;
20036;SDS011;10179;42.640;23.312;2023-06-04T07:46:00;9.73;;;5.30;;
20036;SDS011;10179;42.640;23.312;2023-06-04T07:48:26;10.00;;;5.88;;
20036;SDS011;10179;42.640;23.312;2023-06-04T07:50:56;8.93;;;5.60;;
20036;SDS011;10179;42.640;23.312;2023-06-04T07:53:26;8.80;;;5.57;;
20036;SDS011;10179;42.640;23.312;2023-06-04T07:55:53;10.05;;;5.10;;
20036;SDS011;10179;42.640;23.312;2023-06-04T07:58:19;7.18;;;4.93;;
20036;SDS011;10179;42.640;23.312;2023-06-04T08:00:45;7.93;;;5.13;;
20036;SDS011;10179;42.640;23.312;2023-06-04T08:03:11;8.82;;;5.15;;
20036;SDS011;10179;42.640;23.312;2023-06-04T08:05:36;10.85;;;6.00;;
20036;SDS011;10179;42.640;23.312;2023-06-04T08:08:02;10.30;;;5.50;;
20036;SDS011;10179;42.640;23.312;2023-06-04T08:10:28;16.33;;;6.70;;
20036;SDS011;10179;42.640;23.312;2023-06-04T08:12:54;11.88;;;6.55;;
20036;SDS011;10179;42.640;23.312;2023-06-04T08:15:19;12.77;;;6.65;;
20036;SDS011;10179;42.640;23.312;2023-06-04T08:17:44;14.40;;;6.75;;
20036;SDS011;10179;42.640;23.312;2023-06-04T08:20:10;15.65;;;6.78;;
20036;SDS011;10179;42.640;23.312;2023-06-04T08:22:36;9.50;;;5.80;;
20036;SDS011;10179;42.640;23.312;2023-06-04T08:25:01;11.73;;;6.10;;
20036;SDS011;10179;42.640;23.312;2023-06-04T08:27:28;14.75;;;6.60;;
20036;SDS011;10179;42.640;23.312;2023-06-04T08:29:54;13.15;;;6.68;;
20036;SDS011;10179;42.640;23.312;2023-06-04T08:32:20;13.30;;;6.20;;
20036;SDS011;10179;42.640;23.312;2023-06-04T08:34:45;11.15;;;6.25;;
20036;SDS011;10179;42.640;23.312;2023-06-04T08:37:11;10.98;;;6.30;;
20036;SDS011;10179;42.640;23.312;2023-06-04T08:39:36;12.98;;;7.30;;
20036;SDS011;10179;42.640;23.312;2023-06-04T08:42:09;11.15;;;6.85;;
20036;SDS011;10179;42.640;23.312;2023-06-04T08:44:46;10.77;;;6.68;;
20036;SDS011;10179;42.640;23.312;2023-06-04T08:47:15;10.90;;;6.10;;
20036;SDS011;10179;42.640;23.312;2023-06-04T08:49:41;13.55;;;6.28;;
20036;SDS011;10179;42.640;23.312;2023-06-04T08:52:09;9.52;;;5.82;;
20036;SDS011;10179;42.640;23.312;2023-06-04T08:54:35;14.18;;;5.90;;
20036;SDS011;10179;42.640;23.312;2023-06-04T08:57:01;11.68;;;6.05;;
20036;SDS011;10179;42.640;23.312;2023-06-04T08:59:27;14.55;;;6.10;;
20036;SDS011;10179;42.640;23.312;2023-06-04T09:01:53;10.00;;;5.88;;
20036;SDS011;10179;42.640;23.312;2023-06-04T09:04:19;9.98;;;5.28;;
20036;SDS011;10179;42.640;23.312;2023-06-04T09:06:45;11.40;;;4.75;;
20036;SDS011;10179;42.640;23.312;2023-06-04T09:09:11;10.02;;;5.30;;
20036;SDS011;10179;42.640;23.312;2023-06-04T09:11:52;6.97;;;4.82;;
20036;SDS011;10179;42.640;23.312;2023-06-04T09:14:22;10.10;;;5.22;;
20036;SDS011;10179;42.640;23.312;2023-06-04T09:16:49;9.23;;;5.35;;
20036;SDS011;10179;42.640;23.312;2023-06-04T09:19:16;11.63;;;6.38;;
20036;SDS011;10179;42.640;23.312;2023-06-04T09:21:55;10.30;;;5.78;;
20036;SDS011;10179;42.640;23.312;2023-06-04T09:24:23;8.85;;;5.78;;
20036;SDS011;10179;42.640;23.312;2023-06-04T09:26:50;7.80;;;5.28;;
20036;SDS011;10179;42.640;23.312;2023-06-04T09:29:15;14.13;;;5.28;;
20036;SDS011;10179;42.640;23.312;2023-06-04T09:31:44;8.02;;;5.88;;
20036;SDS011;10179;42.640;23.312;2023-06-04T09:34:10;8.23;;;5.40;;
20036;SDS011;10179;42.640;23.312;2023-06-04T09:36:35;9.02;;;5.55;;
20036;SDS011;10179;42.640;23.312;2023-06-04T09:39:23;14.82;;;5.65;;
20036;SDS011;10179;42.640;23.312;2023-06-04T09:42:00;13.88;;;5.93;;
20036;SDS011;10179;42.640;23.312;2023-06-04T09:44:28;11.75;;;5.50;;
20036;SDS011;10179;42.640;23.312;2023-06-04T09:46:57;9.30;;;5.28;;
20036;SDS011;10179;42.640;23.312;2023-06-04T09:49:23;9.55;;;6.03;;
20036;SDS011;10179;42.640;23.312;2023-06-04T09:51:49;11.25;;;5.85;;
20036;SDS011;10179;42.640;23.312;2023-06-04T09:54:15;10.75;;;6.03;;
20036;SDS011;10179;42.640;23.312;2023-06-04T09:56:41;9.65;;;6.00;;
20036;SDS011;10179;42.640;23.312;2023-06-04T09:59:07;10.60;;;6.07;;
20036;SDS011;10179;42.640;23.312;2023-06-04T10:01:35;15.05;;;6.47;;
20036;SDS011;10179;42.640;23.312;2023-06-04T10:04:05;10.65;;;5.97;;
20036;SDS011;10179;42.640;23.312;2023-06-04T10:06:33;9.60;;;5.68;;
20036;SDS011;10179;42.640;23.312;2023-06-04T10:08:59;11.63;;;6.00;;
20036;SDS011;10179;42.640;23.312;2023-06-04T10:11:34;10.35;;;6.30;;
20036;SDS011;10179;42.640;23.312;2023-06-04T10:16:36;11.25;;;6.05;;
20036;SDS011;10179;42.640;23.312;2023-06-04T10:19:04;9.40;;;5.63;;
20036;SDS011;10179;42.640;23.312;2023-06-04T10:21:32;11.73;;;5.97;;
20036;SDS011;10179;42.640;23.312;2023-06-04T10:24:00;10.60;;;5.65;;
20036;SDS011;10179;42.640;23.312;2023-06-04T10:26:25;10.30;;;5.30;;
20036;SDS011;10179;42.640;23.312;2023-06-04T10:28:52;11.15;;;5.32;;
20036;SDS011;10179;42.640;23.312;2023-06-04T10:31:17;9.77;;;5.47;;
20036;SDS011;10179;42.640;23.312;2023-06-04T10:33:43;9.23;;;5.95;;
20036;SDS011;10179;42.640;23.312;2023-06-04T10:38:47;10.05;;;5.18;;
20036;SDS011;10179;42.640;23.312;2023-06-04T10:41:13;9.10;;;5.53;;
20036;SDS011;10179;42.640;23.312;2023-06-04T10:43:41;11.27;;;5.18;;
20036;SDS011;10179;42.640;23.312;2023-06-04T10:46:13;8.77;;;5.35;;
20036;SDS011;10179;42.640;23.312;2023-06-04T10:49:12;8.45;;;5.40;;
20036;SDS011;10179;42.640;23.312;2023-06-04T10:51:31;10.35;;;5.35;;
20036;SDS011;10179;42.640;23.312;2023-06-04T10:53:58;11.43;;;5.18;;
20036;SDS011;10179;42.640;23.312;2023-06-04T10:56:28;8.55;;;5.30;;
20036;SDS011;10179;42.640;23.312;2023-06-04T10:58:55;8.95;;;5.07;;
20036;SDS011;10179;42.640;23.312;2023-06-04T11:01:27;8.07;;;5.50;;
20036;SDS011;10179;42.640;23.312;2023-06-04T11:03:53;9.85;;;5.45;;
20036;SDS011;10179;42.640;23.312;2023-06-04T11:06:20;8.75;;;5.38;;
20036;SDS011;10179;42.640;23.312;2023-06-04T11:08:46;9.10;;;5.35;;
20036;SDS011;10179;42.640;23.312;2023-06-04T11:11:12;7.60;;;5.07;;
20036;SDS011;10179;42.640;23.312;2023-06-04T11:13:38;9.05;;;5.30;;
20036;SDS011;10179;42.640;23.312;2023-06-04T11:16:14;9.15;;;5.38;;
20036;SDS011;10179;42.640;23.312;2023-06-04T11:18:43;8.43;;;5.10;;
20036;SDS011;10179;42.640;23.312;2023-06-04T11:21:09;7.03;;;5.00;;
20036;SDS011;10179;42.640;23.312;2023-06-04T11:23:39;8.02;;;5.65;;
20036;SDS011;10179;42.640;23.312;2023-06-04T11:26:05;8.85;;;5.53;;
20036;SDS011;10179;42.640;23.312;2023-06-04T11:28:31;12.30;;;5.43;;
20036;SDS011;10179;42.640;23.312;2023-06-04T11:33:23;8.00;;;5.45;;
20036;SDS011;10179;42.640;23.312;2023-06-04T11:35:48;7.90;;;4.78;;
20036;SDS011;10179;42.640;23.312;2023-06-04T11:38:13;9.15;;;4.88;;
20036;SDS011;10179;42.640;23.312;2023-06-04T11:40:40;7.70;;;5.15;;
20036;SDS011;10179;42.640;23.312;2023-06-04T11:43:09;8.82;;;4.75;;
20036;SDS011;10179;42.640;23.312;2023-06-04T11:45:35;6.40;;;5.13;;
20036;SDS011;10179;42.640;23.312;2023-06-04T11:48:02;6.45;;;4.95;;
20036;SDS011;10179;42.640;23.312;2023-06-04T11:50:30;7.10;;;5.18;;
20036;SDS011;10179;42.640;23.312;2023-06-04T11:52:56;6.10;;;4.90;;
20036;SDS011;10179;42.640;23.312;2023-06-04T11:55:23;11.07;;;5.32;;
20036;SDS011;10179;42.640;23.312;2023-06-04T11:57:50;9.40;;;5.30;;
20036;SDS011;10179;42.640;23.312;2023-06-04T12:00:16;8.40;;;5.55;;
20036;SDS011;10179;42.640;23.312;2023-06-04T12:03:15;6.82;;;5.07;;
20036;SDS011;10179;42.640;23.312;2023-06-04T12:05:34;7.20;;;5.47;;
20036;SDS011;10179;42.640;23.312;2023-06-04T12:10:36;8.52;;;5.47;;
20036;SDS011;10179;42.640;23.312;2023-06-04T12:13:03;9.27;;;5.60;;
20036;SDS011;10179;42.640;23.312;2023-06-04T12:15:28;9.35;;;6.00;;
20036;SDS011;10179;42.640;23.312;2023-06-04T12:17:54;7.53;;;5.72;;
20036;SDS011;10179;42.640;23.312;2023-06-04T12:20:52;10.57;;;5.97;;
20036;SDS011;10179;42.640;23.312;2023-06-04T12:23:19;8.18;;;6.03;;
20036;SDS011;10179;42.640;23.312;2023-06-04T12:25:49;7.55;;;5.80;;
20036;SDS011;10179;42.640;23.312;2023-06-04T12:28:19;8.98;;;6.15;;
20036;SDS011;10179;42.640;23.312;2023-06-04T12:30:44;12.05;;;7.20;;
20036;SDS011;10179;42.640;23.312;2023-06-04T12:33:10;12.13;;;6.68;;
20036;SDS011;10179;42.640;23.312;2023-06-04T12:35:36;9.90;;;5.97;;
20036;SDS011;10179;42.640;23.312;2023-06-04T12:38:02;8.07;;;6.03;;
20036;SDS011;10179;42.640;23.312;2023-06-04T12:40:29;7.80;;;6.30;;
20036;SDS011;10179;42.640;23.312;2023-06-04T12:42:55;10.07;;;6.57;;
20036;SDS011;10179;42.640;23.312;2023-06-04T12:45:20;9.23;;;7.22;;
20036;SDS011;10179;42.640;23.312;2023-06-04T12:47:46;8.88;;;7.00;;
20036;SDS011;10179;42.640;23.312;2023-06-04T12:50:12;13.32;;;8.15;;
20036;SDS011;10179;42.640;23.312;2023-06-04T12:52:37;12.57;;;7.85;;
20036;SDS011;10179;42.640;23.312;2023-06-04T12:55:03;11.75;;;8.18;;
20036;SDS011;10179;42.640;23.312;2023-06-04T12:57:28;11.90;;;7.80;;
20036;SDS011;10179;42.640;23.312;2023-06-04T12:59:54;10.20;;;7.05;;
20036;SDS011;10179;42.640;23.312;2023-06-04T13:02:19;12.13;;;7.72;;
20036;SDS011;10179;42.640;23.312;2023-06-04T13:04:46;11.10;;;8.23;;
20036;SDS011;10179;42.640;23.312;2023-06-04T13:07:11;12.52;;;8.10;;
20036;SDS011;10179;42.640;23.312;2023-06-04T13:09:37;14.63;;;8.35;;
20036;SDS011;10179;42.640;23.312;2023-06-04T13:12:03;12.02;;;8.07;;
20036;SDS011;10179;42.640;23.312;2023-06-04T13:14:29;15.85;;;8.85;;
20036;SDS011;10179;42.640;23.312;2023-06-04T13:16:58;11.95;;;8.38;;
20036;SDS011;10179;42.640;23.312;2023-06-04T13:19:23;13.82;;;8.63;;
20036;SDS011;10179;42.640;23.312;2023-06-04T13:21:48;15.85;;;8.48;;
20036;SDS011;10179;42.640;23.312;2023-06-04T13:24:14;14.13;;;8.68;;
20036;SDS011;10179;42.640;23.312;2023-06-04T13:26:40;12.95;;;8.73;;
20036;SDS011;10179;42.640;23.312;2023-06-04T13:29:07;13.75;;;8.52;;
20036;SDS011;10179;42.640;23.312;2023-06-04T13:31:32;9.05;;;7.47;;
20036;SDS011;10179;42.640;23.312;2023-06-04T13:33:58;9.40;;;7.05;;
20036;SDS011;10179;42.640;23.312;2023-06-04T13:36:23;8.43;;;6.68;;
20036;SDS011;10179;42.640;23.312;2023-06-04T13:38:48;9.07;;;6.50;;
20036;SDS011;10179;42.640;23.312;2023-06-04T13:41:14;12.43;;;6.35;;
20036;SDS011;10179;42.640;23.312;2023-06-04T13:43:39;11.55;;;6.10;;
20036;SDS011;10179;42.640;23.312;2023-06-04T13:46:04;8.57;;;5.95;;
20036;SDS011;10179;42.640;23.312;2023-06-04T13:48:30;8.35;;;5.50;;
20036;SDS011;10179;42.640;23.312;2023-06-04T13:50:56;7.90;;;5.43;;
20036;SDS011;10179;42.640;23.312;2023-06-04T13:53:21;7.95;;;5.65;;
20036;SDS011;10179;42.640;23.312;2023-06-04T13:55:46;7.13;;;5.38;;
20036;SDS011;10179;42.640;23.312;2023-06-04T13:58:12;8.10;;;5.45;;
20036;SDS011;10179;42.640;23.312;2023-06-04T14:00:39;9.23;;;4.90;;
20036;SDS011;10179;42.640;23.312;2023-06-04T14:03:05;11.27;;;5.40;;
20036;SDS011;10179;42.640;23.312;2023-06-04T14:05:30;9.40;;;4.93;;
20036;SDS011;10179;42.640;23.312;2023-06-04T14:07:56;9.35;;;5.97;;
20036;SDS011;10179;42.640;23.312;2023-06-04T14:10:22;8.32;;;5.47;;
20036;SDS011;10179;42.640;23.312;2023-06-04T14:12:48;8.68;;;5.43;;
20036;SDS011;10179;42.640;23.312;2023-06-04T14:15:13;6.57;;;5.10;;
20036;SDS011;10179;42.640;23.312;2023-06-04T14:17:39;7.25;;;5.22;;
20036;SDS011;10179;42.640;23.312;2023-06-04T14:20:05;6.90;;;4.93;;
20036;SDS011;10179;42.640;23.312;2023-06-04T14:22:34;7.45;;;5.28;;
20036;SDS011;10179;42.640;23.312;2023-06-04T14:25:04;10.90;;;5.15;;
20036;SDS011;10179;42.640;23.312;2023-06-04T14:27:31;8.43;;;5.22;;
20036;SDS011;10179;42.640;23.312;2023-06-04T14:29:57;8.20;;;5.35;;
20036;SDS011;10179;42.640;23.312;2023-06-04T14:32:22;9.02;;;5.15;;
20036;SDS011;10179;42.640;23.312;2023-06-04T14:34:48;6.72;;;5.05;;
20036;SDS011;10179;42.640;23.312;2023-06-04T14:37:14;7.55;;;5.20;;
20036;SDS011;10179;42.640;23.312;2023-06-04T14:39:39;6.82;;;4.88;;
20036;SDS011;10179;42.640;23.312;2023-06-04T14:42:05;7.80;;;5.47;;
20036;SDS011;10179;42.640;23.312;2023-06-04T14:44:30;9.27;;;5.55;;